Time;durP1;ratioP1;P1;durP2;ratioP2;P2;SDS_P1;SDS_P2;PMS_P1;PMS_P2;Temp;Humidity;BMP_temperature;BMP_pressure;BME280_temperature;BME280_humidity;BME280_pressure;Samples;Min_cycle;Max_cycle;Signal;HPM_P1;HPM_P2
2022/05/05 00:09:18;;;;;;;13.18;9.65;;;;;;;12.37;100.00;100613.59;21033110;28;20051;-69
2022/05/05 00:19:20;;;;;;;11.45;9.07;;;;;;;12.36;100.00;100607.50;21038355;28;20052;-69
2022/05/05 00:29:21;;;;;;;11.77;8.75;;;;;;;12.38;100.00;100595.19;21036477;28;20498;-69
2022/05/05 00:39:23;;;;;;;11.32;8.32;;;;;;;12.27;100.00;100592.78;21036578;28;20053;-69
2022/05/05 00:49:24;;;;;;;13.10;8.73;;;;;;;12.27;100.00;100582.28;21035725;28;20109;-69
2022/05/05 00:59:26;;;;;;;11.30;9.15;;;;;;;12.26;100.00;100591.06;21035187;28;20044;-69
2022/05/05 01:09:27;;;;;;;14.25;9.23;;;;;;;12.33;100.00;100583.91;21032499;28;20047;-69
2022/05/05 01:19:29;;;;;;;13.32;9.82;;;;;;;12.27;100.00;100599.78;21035171;28;20071;-69
2022/05/05 01:29:30;;;;;;;10.98;8.90;;;;;;;12.21;100.00;100599.88;21033949;28;20566;-70
2022/05/05 01:39:32;;;;;;;12.85;9.48;;;;;;;12.23;100.00;100606.00;21030362;28;20045;-69
2022/05/05 01:49:33;;;;;;;14.50;10.32;;;;;;;12.16;100.00;100596.50;21029759;28;20105;-69
2022/05/05 01:59:36;;;;;;;12.98;9.82;;;;;;;12.20;100.00;100600.78;21029613;28;20044;-69
2022/05/05 02:09:37;;;;;;;15.18;11.20;;;;;;;12.15;100.00;100606.13;21027607;28;20048;-69
2022/05/05 02:19:39;;;;;;;12.57;10.07;;;;;;;12.10;100.00;100609.75;21028468;28;20052;-69
2022/05/05 02:29:42;;;;;;;14.50;10.82;;;;;;;12.07;100.00;100616.78;21027968;28;20105;-69
2022/05/05 02:39:43;;;;;;;14.70;11.73;;;;;;;12.04;100.00;100616.84;21027049;28;20048;-69
2022/05/05 02:49:45;;;;;;;13.48;10.95;;;;;;;12.02;100.00;100615.97;21025585;28;20052;-69
2022/05/05 02:59:50;;;;;;;17.92;14.02;;;;;;;12.00;100.00;100615.16;21024188;28;20047;-69
2022/05/05 03:09:52;;;;;;;18.08;13.13;;;;;;;11.98;100.00;100611.72;21019432;28;20109;-69
2022/05/05 03:19:54;;;;;;;17.67;13.40;;;;;;;11.86;100.00;100611.03;21024040;28;20111;-69
2022/05/05 03:29:56;;;;;;;21.67;14.00;;;;;;;11.93;100.00;100616.16;21034909;28;20056;-69
2022/05/05 03:39:58;;;;;;;17.40;13.57;;;;;;;11.81;100.00;100613.72;21040192;28;20047;-69
2022/05/05 03:49:59;;;;;;;17.05;13.05;;;;;;;11.84;100.00;100629.44;21039960;28;20455;-69
2022/05/05 04:00:03;;;;;;;19.00;13.27;;;;;;;11.81;100.00;100632.94;21040102;28;20097;-69
2022/05/05 04:10:06;;;;;;;16.27;13.37;;;;;;;11.64;100.00;100637.63;21038066;28;20043;-69
2022/05/05 04:20:27;;;;;;;18.50;14.77;;;;;;;11.59;100.00;100655.16;21034773;28;20044;-69
2022/05/05 04:30:28;;;;;;;20.73;14.13;;;;;;;11.59;100.00;100667.41;21036345;28;20489;-69
2022/05/05 04:40:31;;;;;;;21.25;14.45;;;;;;;11.73;100.00;100668.06;21034875;28;20081;-69
2022/05/05 04:50:32;;;;;;;20.30;14.85;;;;;;;11.74;100.00;100675.94;21034412;28;20052;-69
2022/05/05 05:00:35;;;;;;;17.95;14.13;;;;;;;11.73;100.00;100684.66;21036760;28;20043;-69
2022/05/05 05:10:37;;;;;;;18.50;14.25;;;;;;;11.95;100.00;100705.34;21030749;28;20143;-69
2022/05/05 05:20:39;;;;;;;17.40;13.80;;;;;;;12.05;100.00;100706.94;21033179;28;20044;-69
2022/05/05 05:30:40;;;;;;;18.80;14.25;;;;;;;12.15;100.00;100728.63;21031037;28;20040;-69
2022/05/05 05:40:42;;;;;;;24.80;17.63;;;;;;;12.28;100.00;100728.41;21030523;28;20052;-69
2022/05/05 05:50:43;;;;;;;19.27;13.85;;;;;;;12.29;100.00;100737.16;21028926;28;20056;-68
2022/05/05 06:00:45;;;;;;;20.13;13.63;;;;;;;12.38;100.00;100730.88;21028736;28;20280;-68
2022/05/05 06:10:46;;;;;;;22.10;12.25;;;;;;;12.42;100.00;100741.28;21027641;28;20055;-69
2022/05/05 06:20:48;;;;;;;22.95;13.13;;;;;;;12.47;100.00;100755.22;21028583;28;20462;-69
2022/05/05 06:30:49;;;;;;;21.67;12.07;;;;;;;12.56;100.00;100768.19;21027200;28;20077;-69
2022/05/05 06:40:51;;;;;;;19.10;12.20;;;;;;;12.62;100.00;100782.09;21021858;28;20063;-69
2022/05/05 06:50:52;;;;;;;21.30;11.90;;;;;;;12.77;100.00;100781.81;21024578;28;20052;-69
2022/05/05 07:11:16;;;;;;;23.52;13.02;;;;;;;12.78;100.00;100807.19;21003728;28;20490;-69
2022/05/05 07:21:20;;;;;;;23.58;14.95;;;;;;;12.77;100.00;100822.09;21017188;28;20484;-70
2022/05/05 07:31:21;;;;;;;26.40;17.42;;;;;;;12.70;100.00;100824.88;21016703;28;20500;-70
2022/05/05 07:41:23;;;;;;;25.73;17.15;;;;;;;12.60;100.00;100837.28;21015529;28;20393;-70
2022/05/05 07:51:24;;;;;;;29.23;18.83;;;;;;;12.32;100.00;100852.63;21017319;28;20397;-69
2022/05/05 08:01:27;;;;;;;34.75;22.40;;;;;;;12.00;100.00;100851.34;21015262;28;20059;-68
2022/05/05 08:11:29;;;;;;;34.25;21.27;;;;;;;11.91;100.00;100853.22;21016033;28;20048;-68
2022/05/05 08:21:30;;;;;;;36.50;23.90;;;;;;;11.73;100.00;100856.94;21030730;28;20054;-68
2022/05/05 08:31:32;;;;;;;41.30;25.15;;;;;;;11.73;100.00;100878.78;21029658;28;20567;-68
2022/05/05 08:41:34;;;;;;;34.47;23.65;;;;;;;11.85;100.00;100884.81;21026184;28;20052;-69
2022/05/05 08:51:43;;;;;;;33.78;21.38;;;;;;;11.96;100.00;100891.63;21029744;28;20531;-69
2022/05/05 09:01:45;;;;;;;31.50;21.23;;;;;;;12.00;100.00;100887.22;21025660;28;20055;-70
2022/05/05 09:12:15;;;;;;;31.30;19.23;;;;;;;12.21;100.00;100894.78;21027513;28;20060;-70
2022/05/05 09:22:18;;;;;;;28.55;17.90;;;;;;;12.45;100.00;100893.53;21023567;28;20472;-70
2022/05/05 09:32:20;;;;;;;28.73;18.58;;;;;;;12.75;100.00;100900.09;21024218;28;20504;-70
2022/05/05 09:42:42;;;;;;;28.65;16.13;;;;;;;12.80;100.00;100897.38;21019574;28;20048;-70
2022/05/05 10:13:26;;;;;;;23.42;15.60;;;;;;;12.93;100.00;100908.53;21019616;28;20416;-69
2022/05/05 10:23:56;;;;;;;27.02;16.33;;;;;;;12.93;100.00;100914.66;21021563;28;20044;-69
2022/05/05 10:34:08;;;;;;;23.88;15.30;;;;;;;12.87;100.00;100900.75;21015953;28;20052;-69
2022/05/05 10:44:25;;;;;;;25.00;15.55;;;;;;;12.96;100.00;100904.09;21017130;28;20101;-70
2022/05/05 10:54:26;;;;;;;26.48;16.55;;;;;;;12.91;100.00;100908.56;21017183;28;20052;-71
2022/05/05 11:04:30;;;;;;;26.13;16.95;;;;;;;13.17;100.00;100907.22;21017391;28;20139;-71
2022/05/05 11:24:54;;;;;;;26.30;16.52;;;;;;;13.76;100.00;100918.41;21016703;28;20046;-73
2022/05/05 11:34:56;;;;;;;28.55;18.10;;;;;;;13.84;100.00;100919.97;21016762;28;20060;-70
2022/05/05 11:45:04;;;;;;;29.98;18.58;;;;;;;13.89;100.00;100917.22;21016549;28;20468;-70
2022/05/05 11:55:08;;;;;;;31.58;18.45;;;;;;;14.27;100.00;100897.97;21028649;28;20052;-71
2022/05/05 12:05:10;;;;;;;27.23;17.57;;;;;;;14.21;100.00;100907.78;21030147;28;20493;-71
2022/05/05 12:15:13;;;;;;;29.13;18.08;;;;;;;13.89;100.00;100909.34;21030995;28;20050;-70
2022/05/05 12:25:16;;;;;;;27.27;16.85;;;;;;;14.30;100.00;100907.56;21029515;28;20044;-70
2022/05/05 12:35:29;;;;;;;25.75;17.90;;;;;;;14.39;100.00;100904.72;21029564;28;20044;-70
2022/05/05 12:45:32;;;;;;;28.42;18.63;;;;;;;14.43;100.00;100909.03;21029051;28;20052;-69
2022/05/05 13:05:53;;;;;;;24.55;15.93;;;;;;;14.29;100.00;100897.94;21025118;28;20562;-69
2022/05/05 13:16:16;;;;;;;25.33;16.10;;;;;;;14.55;100.00;100894.72;21025335;28;20060;-70
2022/05/05 13:26:18;;;;;;;27.58;15.52;;;;;;;14.77;100.00;100877.47;21028435;28;20386;-69
2022/05/05 13:36:20;;;;;;;25.88;15.70;;;;;;;14.87;100.00;100871.06;21022432;28;20059;-70
2022/05/05 13:46:21;;;;;;;21.17;14.52;;;;;;;14.83;98.64;100860.63;21024162;28;20073;-68
2022/05/05 13:56:23;;;;;;;22.77;14.23;;;;;;;14.96;97.60;100854.13;21023314;28;20170;-68
2022/05/05 14:06:28;;;;;;;25.02;13.90;;;;;;;15.02;99.38;100858.38;21020847;28;20086;-68
2022/05/05 14:16:31;;;;;;;21.13;12.90;;;;;;;15.07;97.60;100853.84;21013521;28;20056;-68
2022/05/05 14:26:34;;;;;;;21.85;13.38;;;;;;;15.06;98.21;100860.91;21020597;28;20080;-68
2022/05/05 14:36:36;;;;;;;24.75;12.43;;;;;;;15.01;91.54;100862.78;21019229;28;20056;-69
2022/05/05 14:46:37;;;;;;;21.98;11.85;;;;;;;15.03;90.66;100870.66;21019519;28;20040;-69
2022/05/05 14:56:39;;;;;;;22.85;12.20;;;;;;;15.20;89.60;100864.94;21018521;28;20052;-69
2022/05/05 15:06:40;;;;;;;19.48;12.75;;;;;;;15.08;88.38;100872.25;21011817;28;20500;-69
2022/05/05 15:16:42;;;;;;;23.00;12.75;;;;;;;15.18;87.37;100877.28;21016641;28;20209;-69
2022/05/05 15:26:45;;;;;;;21.35;11.90;;;;;;;15.06;85.90;100878.50;21016069;28;20052;-69
2022/05/05 15:36:48;;;;;;;21.85;12.13;;;;;;;14.97;88.89;100882.22;21016058;28;20044;-69
2022/05/05 15:46:49;;;;;;;19.75;10.93;;;;;;;14.88;91.20;100871.91;21015933;28;20044;-69
2022/05/05 15:56:51;;;;;;;19.77;10.10;;;;;;;14.85;91.38;100877.25;21020171;28;20048;-69
2022/05/05 16:06:52;;;;;;;20.67;10.70;;;;;;;14.90;91.80;100880.69;21014512;28;20052;-69
2022/05/05 16:16:58;;;;;;;18.42;10.93;;;;;;;14.90;91.54;100870.13;21014958;28;20067;-69
2022/05/05 16:37:19;;;;;;;19.85;9.43;;;;;;;14.87;93.18;100873.69;21022006;28;20071;-69
2022/05/05 16:47:21;;;;;;;22.85;9.77;;;;;;;14.75;93.02;100878.41;21029540;28;20109;-69
2022/05/05 16:57:23;;;;;;;14.23;9.68;;;;;;;14.78;93.77;100883.63;21027588;28;20059;-69
2022/05/05 17:07:27;;;;;;;14.68;9.77;;;;;;;14.78;96.06;100891.53;21025496;28;20048;-69
2022/05/05 17:17:28;;;;;;;17.40;10.60;;;;;;;14.82;94.02;100895.81;21021375;28;20065;-69
2022/05/05 17:27:30;;;;;;;21.27;10.20;;;;;;;14.68;95.45;100900.56;21024005;28;20303;-69
2022/05/05 17:37:32;;;;;;;15.38;9.65;;;;;;;14.50;96.75;100891.31;21020007;28;20059;-69
2022/05/05 17:57:53;;;;;;;16.65;9.75;;;;;;;14.29;99.05;100906.72;21021714;28;20117;-69
2022/05/05 18:07:55;;;;;;;20.17;10.50;;;;;;;14.20;99.34;100909.56;21022189;28;20054;-69
2022/05/05 18:17:57;;;;;;;18.20;9.90;;;;;;;14.20;100.00;100913.94;21020638;28;20118;-69
2022/05/05 18:28:00;;;;;;;20.70;10.50;;;;;;;13.94;100.00;100922.41;21016311;28;20040;-69
2022/05/05 18:38:02;;;;;;;16.58;9.98;;;;;;;13.96;100.00;100925.88;21018795;28;20056;-69
2022/05/05 18:48:05;;;;;;;20.10;10.90;;;;;;;13.80;100.00;100925.34;21016483;28;20051;-69
2022/05/05 18:58:07;;;;;;;19.27;10.40;;;;;;;13.64;100.00;100940.56;21017103;28;20048;-69
2022/05/05 19:08:08;;;;;;;20.67;10.48;;;;;;;13.57;100.00;100945.09;21016266;28;20550;-69
2022/05/05 19:18:10;;;;;;;18.42;10.57;;;;;;;13.50;100.00;100968.91;21017318;28;20067;-69
2022/05/05 19:28:11;;;;;;;16.40;10.05;;;;;;;13.50;100.00;100975.03;21017239;28;20063;-70
2022/05/05 19:38:13;;;;;;;20.27;12.00;;;;;;;13.36;100.00;100971.78;21014875;28;20048;-70
2022/05/05 19:48:14;;;;;;;23.13;13.43;;;;;;;13.30;100.00;100983.28;21015191;28;20496;-70
2022/05/05 20:08:36;;;;;;;24.70;14.88;;;;;;;13.08;100.00;101006.44;21015656;28;20147;-69
2022/05/05 20:18:37;;;;;;;22.95;14.02;;;;;;;13.08;100.00;101016.94;21030200;28;20048;-69
2022/05/05 20:28:40;;;;;;;20.75;13.60;;;;;;;13.01;100.00;101017.91;21025216;28;20167;-70
2022/05/05 20:38:41;;;;;;;26.70;16.33;;;;;;;12.90;100.00;101026.88;21027503;28;20079;-69
2022/05/05 20:48:45;;;;;;;28.17;15.25;;;;;;;12.76;100.00;101029.72;21026197;28;20114;-71
2022/05/05 20:58:46;;;;;;;21.25;13.57;;;;;;;12.74;100.00;101039.34;21026940;28;20044;-69
2022/05/05 21:08:48;;;;;;;24.67;14.98;;;;;;;12.78;100.00;101033.16;21024668;28;20117;-69
2022/05/05 21:18:49;;;;;;;23.40;14.48;;;;;;;12.69;100.00;101043.81;21025401;28;20063;-69
2022/05/05 21:28:51;;;;;;;24.33;15.48;;;;;;;12.62;100.00;101036.91;21025361;28;20105;-69
2022/05/05 21:38:52;;;;;;;22.55;15.07;;;;;;;12.66;100.00;101038.63;21023568;28;20044;-69
2022/05/05 21:48:56;;;;;;;25.48;15.48;;;;;;;12.51;100.00;101043.19;21022715;28;20054;-69
2022/05/05 21:58:57;;;;;;;26.48;15.13;;;;;;;12.48;100.00;101040.59;21018951;28;20060;-69
2022/05/05 22:08:59;;;;;;;24.30;15.55;;;;;;;12.38;100.00;101038.13;21027023;28;20048;-69
2022/05/05 22:19:00;;;;;;;25.92;15.80;;;;;;;12.41;100.00;101044.19;21027306;28;20059;-69
2022/05/05 22:29:03;;;;;;;25.80;15.93;;;;;;;12.30;100.00;101043.44;21026484;28;20054;-69
2022/05/05 22:39:04;;;;;;;23.38;14.05;;;;;;;12.19;100.00;101042.72;21025687;28;20048;-69
2022/05/05 22:59:26;;;;;;;26.77;14.63;;;;;;;12.18;100.00;101033.13;21023354;28;20462;-69
2022/05/05 23:09:27;;;;;;;22.90;14.00;;;;;;;12.25;100.00;101045.25;21024100;28;20044;-69
2022/05/05 23:19:29;;;;;;;24.80;15.25;;;;;;;12.18;100.00;101049.72;21023850;28;20048;-68
2022/05/05 23:29:36;;;;;;;20.95;13.80;;;;;;;12.17;100.00;101045.38;21023621;28;20040;-69
2022/05/05 23:39:37;;;;;;;22.27;14.13;;;;;;;12.11;100.00;101036.69;21025954;28;20105;-69
2022/05/05 23:49:38;;;;;;;26.00;14.68;;;;;;;12.22;100.00;101032.19;21039770;28;20055;-69
2022/05/05 23:59:40;;;;;;;23.85;15.02;;;;;;;12.20;100.00;101039.19;21039510;28;20496;-69
